Time;durP1;ratioP1;P1;durP2;ratioP2;P2;SDS_P1;SDS_P2;PMS_P1;PMS_P2;Temp;Humidity;BMP_temperature;BMP_pressure;BME280_temperature;BME280_humidity;BME280_pressure;Samples;Min_cycle;Max_cycle;Signal;HPM_P1;HPM_P2
2024/03/31 00:00:26;;;;;;;40.33;33.03;;;;;;;13.55;100.00;99913.31;6179292;28;20238;-79
2024/03/31 00:03:47;;;;;;;45.50;33.10;;;;;;;13.46;100.00;99910.81;6183529;28;20313;-78
2024/03/31 00:07:07;;;;;;;45.30;32.73;;;;;;;13.41;100.00;99907.81;6178856;28;20230;-79
2024/03/31 00:10:28;;;;;;;39.73;32.37;;;;;;;13.25;100.00;99922.28;6179075;28;20237;-78
2024/03/31 00:13:49;;;;;;;38.87;30.80;;;;;;;13.21;100.00;99922.81;6183758;28;20234;-78
2024/03/31 00:17:11;;;;;;;36.50;29.63;;;;;;;13.18;100.00;99920.47;6180186;28;20353;-81
2024/03/31 00:20:32;;;;;;;34.53;29.40;;;;;;;13.21;100.00;99917.38;6184165;28;20730;-79
2024/03/31 00:23:53;;;;;;;34.93;31.00;;;;;;;13.18;100.00;99921.31;6188132;28;20250;-80
2024/03/31 00:27:14;;;;;;;39.53;33.60;;;;;;;13.14;100.00;99927.25;6182389;28;20230;-80
2024/03/31 00:30:34;;;;;;;38.53;33.67;;;;;;;13.13;100.00;99918.28;6189811;28;20238;-79
2024/03/31 00:33:56;;;;;;;39.90;32.97;;;;;;;13.02;100.00;99929.44;6180595;28;20230;-81
2024/03/31 00:37:16;;;;;;;33.87;28.93;;;;;;;12.81;100.00;99930.03;6179413;28;20238;-79
2024/03/31 00:40:37;;;;;;;30.17;25.27;;;;;;;12.67;100.00;99924.50;6180072;28;20502;-80
2024/03/31 00:43:57;;;;;;;28.90;25.87;;;;;;;12.73;100.00;99932.75;6182321;28;20226;-80
2024/03/31 00:47:18;;;;;;;24.83;22.27;;;;;;;12.68;100.00;99929.72;6179247;28;20239;-79
2024/03/31 00:50:41;;;;;;;28.67;23.47;;;;;;;12.61;100.00;99931.44;6180605;28;20233;-80
2024/03/31 00:54:01;;;;;;;23.83;21.43;;;;;;;12.56;100.00;99939.22;6183065;28;20226;-79
2024/03/31 00:57:22;;;;;;;23.77;20.30;;;;;;;12.51;100.00;99933.50;6181422;28;20352;-79
2024/03/31 01:00:42;;;;;;;22.57;20.27;;;;;;;12.42;100.00;99933.66;6183254;28;20233;-79
2024/03/31 01:04:03;;;;;;;22.80;19.77;;;;;;;12.36;100.00;99913.56;6180996;28;20623;-79
2024/03/31 01:07:25;;;;;;;21.73;19.17;;;;;;;12.40;100.00;99917.63;6182993;28;20633;-80
2024/03/31 01:10:46;;;;;;;19.97;17.23;;;;;;;12.35;100.00;99928.09;6176440;28;20223;-80
2024/03/31 01:14:06;;;;;;;22.23;16.87;;;;;;;12.35;100.00;99932.69;6180293;28;20237;-81
2024/03/31 01:17:31;;;;;;;18.00;16.17;;;;;;;12.36;100.00;99921.69;6181199;28;20226;-80
2024/03/31 01:20:51;;;;;;;16.73;15.07;;;;;;;12.13;100.00;99930.66;6178283;28;20605;-80
2024/03/31 01:24:13;;;;;;;20.00;14.20;;;;;;;12.08;100.00;99939.25;6184102;28;20603;-82
2024/03/31 01:27:34;;;;;;;21.03;15.33;;;;;;;12.15;100.00;99932.16;6177828;28;20324;-79
2024/03/31 01:30:54;;;;;;;17.27;15.50;;;;;;;12.10;100.00;99931.81;6182771;28;20264;-79
2024/03/31 01:34:15;;;;;;;18.53;15.93;;;;;;;12.00;100.00;99950.06;6180064;28;20242;-81
2024/03/31 01:37:35;;;;;;;16.30;14.50;;;;;;;12.01;100.00;99940.97;6177687;28;20237;-80
2024/03/31 01:40:57;;;;;;;15.17;13.67;;;;;;;12.08;100.00;99922.22;6178744;28;20273;-81
2024/03/31 01:44:18;;;;;;;19.37;14.93;;;;;;;12.04;100.00;99925.25;6178715;28;20674;-80
2024/03/31 01:47:38;;;;;;;17.03;14.50;;;;;;;12.01;100.00;99928.28;6176379;28;20237;-79
2024/03/31 01:50:59;;;;;;;17.27;15.57;;;;;;;11.97;100.00;99942.31;6176566;28;20241;-79
2024/03/31 01:54:19;;;;;;;17.03;13.63;;;;;;;11.96;100.00;99951.41;6193036;28;20226;-79
2024/03/31 01:57:41;;;;;;;15.47;13.13;;;;;;;11.96;100.00;99946.84;6176429;28;20261;-82
2024/03/31 02:01:02;;;;;;;15.30;13.70;;;;;;;11.96;100.00;99940.59;6164166;28;20262;-82
2024/03/31 02:04:26;;;;;;;14.27;12.60;;;;;;;11.83;100.00;99941.09;6181129;28;20238;-81
2024/03/31 02:07:47;;;;;;;13.70;12.37;;;;;;;11.79;100.00;99952.41;6173987;28;20234;-80
2024/03/31 02:11:07;;;;;;;14.27;12.80;;;;;;;11.75;100.00;99949.19;6176412;28;20234;-80
2024/03/31 02:14:29;;;;;;;13.13;11.93;;;;;;;11.37;100.00;99962.41;6181655;28;20226;-81
2024/03/31 02:17:50;;;;;;;16.00;11.43;;;;;;;11.42;100.00;99954.66;6171642;28;21822;-80
2024/03/31 02:21:11;;;;;;;12.60;11.33;;;;;;;11.41;100.00;99937.59;6179694;28;20269;-80
2024/03/31 02:24:33;;;;;;;19.67;12.27;;;;;;;11.33;100.00;99950.25;6176305;28;20238;-82
2024/03/31 02:27:54;;;;;;;12.93;11.20;;;;;;;11.37;100.00;99947.03;6178598;28;20230;-80
2024/03/31 02:31:17;;;;;;;12.73;11.40;;;;;;;11.35;100.00;99943.66;6171252;28;20309;-80
2024/03/31 02:34:38;;;;;;;13.40;11.03;;;;;;;11.35;100.00;99959.03;6182002;28;20243;-80
2024/03/31 02:37:59;;;;;;;13.10;10.57;;;;;;;11.39;100.00;99949.59;6177865;28;20233;-81
2024/03/31 02:41:22;;;;;;;11.37;10.20;;;;;;;11.35;100.00;99951.75;6173181;28;20226;-80
2024/03/31 02:44:43;;;;;;;11.50;10.03;;;;;;;11.35;100.00;99945.53;6190658;28;20227;-81
2024/03/31 02:48:05;;;;;;;15.70;12.23;;;;;;;11.27;100.00;99949.03;6172806;28;20869;-80
2024/03/31 02:51:26;;;;;;;15.93;11.33;;;;;;;11.18;100.00;99942.75;6173160;28;20316;-80
2024/03/31 02:54:47;;;;;;;15.30;12.80;;;;;;;11.20;100.00;99948.00;6144069;28;1069308;-81
2024/03/31 02:58:08;;;;;;;14.80;11.83;;;;;;;11.13;100.00;99950.50;6165359;28;21011;-81
2024/03/31 03:01:30;;;;;;;12.70;11.50;;;;;;;11.10;100.00;99953.53;6174758;28;20234;-80
2024/03/31 03:04:56;;;;;;;14.80;12.43;;;;;;;11.13;100.00;99966.69;6170559;28;20241;-81
2024/03/31 03:08:17;;;;;;;14.07;12.67;;;;;;;10.89;100.00;99966.56;6184849;28;20229;-81
2024/03/31 03:11:38;;;;;;;13.43;12.03;;;;;;;10.85;100.00;99978.69;6177035;28;20234;-81
2024/03/31 03:14:58;;;;;;;14.50;13.00;;;;;;;10.88;100.00;99980.22;6181766;28;20249;-80
2024/03/31 03:18:22;;;;;;;14.17;12.40;;;;;;;11.02;100.00;99974.22;6153262;28;20662;-79
2024/03/31 03:21:46;;;;;;;14.53;12.20;;;;;;;11.00;100.00;99982.47;6172485;28;20297;-80
2024/03/31 03:25:07;;;;;;;12.33;11.03;;;;;;;11.05;100.00;99961.28;6178506;28;20226;-80
2024/03/31 03:28:28;;;;;;;18.33;13.73;;;;;;;11.05;100.00;99965.81;6181001;28;20635;-81
2024/03/31 03:31:50;;;;;;;13.67;11.57;;;;;;;11.16;100.00;99962.81;6172042;28;20234;-80
2024/03/31 03:35:10;;;;;;;13.30;11.90;;;;;;;11.06;100.00;99957.56;6176468;28;20233;-81
2024/03/31 03:38:32;;;;;;;12.57;11.30;;;;;;;11.00;100.00;99950.13;6180665;28;20226;-81
2024/03/31 03:41:54;;;;;;;13.40;11.80;;;;;;;10.93;100.00;99948.22;6172625;28;20793;-81
2024/03/31 03:45:15;;;;;;;12.83;11.00;;;;;;;10.97;100.00;99936.13;6174823;28;20325;-82
2024/03/31 03:48:36;;;;;;;20.60;10.53;;;;;;;10.88;100.00;99939.78;6177737;28;20782;-81
2024/03/31 03:51:57;;;;;;;13.33;11.93;;;;;;;10.96;100.00;99951.44;6174636;28;20229;-81
2024/03/31 03:55:19;;;;;;;13.87;12.23;;;;;;;10.96;100.00;99937.97;6174463;28;20233;-81
2024/03/31 03:58:40;;;;;;;20.63;14.87;;;;;;;10.95;100.00;99927.34;6176162;28;20603;-81
2024/03/31 04:02:00;;;;;;;14.53;12.00;;;;;;;10.83;100.00;99934.00;6178023;28;20234;-79
2024/03/31 04:05:21;;;;;;;12.90;10.87;;;;;;;10.92;100.00;99939.28;6180970;28;20238;-80
2024/03/31 04:08:42;;;;;;;16.40;12.43;;;;;;;11.00;100.00;99952.81;6185634;28;20230;-80
2024/03/31 04:12:06;;;;;;;15.27;13.67;;;;;;;11.03;100.00;99940.84;6177601;28;20226;-81
2024/03/31 04:15:28;;;;;;;15.17;13.07;;;;;;;11.06;100.00;99943.22;6175907;28;20242;-80
2024/03/31 04:18:51;;;;;;;15.13;13.50;;;;;;;11.13;100.00;99938.88;6182885;28;20237;-80
2024/03/31 04:22:12;;;;;;;14.20;12.80;;;;;;;10.86;100.00;99942.63;6197305;28;20272;-82
2024/03/31 04:25:32;;;;;;;17.23;14.00;;;;;;;10.77;100.00;99961.59;6179179;28;20233;-81
2024/03/31 04:28:55;;;;;;;16.13;13.67;;;;;;;10.75;100.00;99969.84;6182860;28;20229;-81
2024/03/31 04:32:16;;;;;;;19.00;12.87;;;;;;;10.86;100.00;99968.75;6176667;28;20530;-81
2024/03/31 04:35:37;;;;;;;15.83;14.23;;;;;;;10.82;100.00;99978.16;6179521;28;20279;-81
2024/03/31 04:38:56;;;;;;;14.47;13.07;;;;;;;10.90;100.00;99980.91;6184959;28;20226;-80
2024/03/31 04:42:19;;;;;;;16.03;14.10;;;;;;;10.95;100.00;99987.50;6180365;28;20234;-78
2024/03/31 04:45:40;;;;;;;17.87;13.63;;;;;;;11.04;100.00;99991.06;6182677;28;20769;-80
2024/03/31 04:49:02;;;;;;;14.93;12.53;;;;;;;10.99;100.00;99993.44;6178789;28;20255;-80
2024/03/31 04:52:24;;;;;;;13.40;11.67;;;;;;;10.97;100.00;100009.75;6187590;28;20230;-80
2024/03/31 04:55:44;;;;;;;13.23;11.83;;;;;;;10.91;100.00;100005.00;6180752;28;20238;-81
2024/03/31 04:59:07;;;;;;;14.40;11.50;;;;;;;10.99;100.00;99999.66;6184197;28;20579;-81
2024/03/31 05:02:30;;;;;;;11.93;10.73;;;;;;;11.08;100.00;100005.94;6177249;28;20238;-81
2024/03/31 05:05:51;;;;;;;13.50;10.60;;;;;;;11.18;100.00;100002.09;6177509;28;20260;-81
2024/03/31 05:09:13;;;;;;;17.90;10.17;;;;;;;11.24;100.00;100000.63;6178678;28;20244;-81
2024/03/31 05:12:34;;;;;;;11.30;10.20;;;;;;;11.19;100.00;100011.06;6177256;28;20238;-81
2024/03/31 05:16:00;;;;;;;11.83;10.53;;;;;;;11.07;100.00;100029.38;6173550;28;20218;-80
2024/03/31 05:19:22;;;;;;;12.80;11.70;;;;;;;10.87;100.00;100027.91;6194842;28;20234;-80
2024/03/31 05:22:43;;;;;;;12.07;10.77;;;;;;;10.96;100.00;100029.66;6175388;28;20329;-80
2024/03/31 05:26:05;;;;;;;12.00;10.23;;;;;;;11.00;100.00;100022.06;6178198;28;20253;-80
2024/03/31 05:29:25;;;;;;;10.87;9.73;;;;;;;10.84;100.00;100014.75;6174765;28;20238;-80
2024/03/31 05:32:46;;;;;;;10.47;9.27;;;;;;;10.78;100.00;100026.16;6169687;28;20238;-81
2024/03/31 05:36:24;;;;;;;11.70;10.07;;;;;;;10.93;100.00;100019.16;6175176;28;20569;-82
2024/03/31 05:39:45;;;;;;;10.37;9.27;;;;;;;10.99;100.00;100018.53;6179254;28;20230;-81
2024/03/31 05:43:07;;;;;;;10.90;9.80;;;;;;;11.11;100.00;100019.09;6184220;28;20235;-81
2024/03/31 05:46:28;;;;;;;9.60;8.60;;;;;;;10.96;100.00;100012.63;6174787;28;20221;-80
2024/03/31 05:49:49;;;;;;;9.77;8.87;;;;;;;10.91;100.00;100028.44;6181565;28;20223;-81
2024/03/31 05:53:12;;;;;;;10.40;9.40;;;;;;;10.92;100.00;100017.50;6180565;28;20233;-81
2024/03/31 05:56:32;;;;;;;10.53;9.53;;;;;;;11.00;100.00;100031.03;6164643;28;20606;-82
2024/03/31 05:59:53;;;;;;;9.00;8.20;;;;;;;11.10;100.00;100034.44;6182812;28;20218;-81
2024/03/31 06:03:14;;;;;;;9.53;8.57;;;;;;;11.19;100.00;100035.34;6174560;28;20231;-80
2024/03/31 06:06:35;;;;;;;11.33;10.20;;;;;;;11.18;100.00;100044.44;6176583;28;20840;-80
2024/03/31 06:09:56;;;;;;;10.63;8.70;;;;;;;11.04;100.00;100050.41;6180709;28;20234;-81
2024/03/31 06:13:18;;;;;;;11.17;9.83;;;;;;;11.03;100.00;100043.34;6183556;28;20235;-81
2024/03/31 06:16:39;;;;;;;10.70;9.60;;;;;;;11.07;100.00;100042.88;6168617;28;20233;-81
2024/03/31 06:20:00;;;;;;;10.40;9.37;;;;;;;11.15;100.00;100029.44;6176966;28;20230;-81
2024/03/31 06:23:20;;;;;;;9.33;8.43;;;;;;;11.13;100.00;100042.22;6177235;28;20230;-81
2024/03/31 06:26:42;;;;;;;11.17;10.03;;;;;;;11.13;100.00;100034.13;6180714;28;20242;-82
2024/03/31 06:30:04;;;;;;;10.77;9.17;;;;;;;11.22;100.00;100038.53;6179647;28;20226;-81
2024/03/31 06:33:25;;;;;;;13.13;10.40;;;;;;;11.42;100.00;100035.59;6177662;28;20230;-82
2024/03/31 06:36:48;;;;;;;11.23;10.13;;;;;;;11.44;100.00;100039.00;6175822;28;20237;-81
2024/03/31 06:40:10;;;;;;;10.93;9.93;;;;;;;11.30;100.00;100040.47;6177907;28;21798;-82
2024/03/31 06:43:32;;;;;;;11.10;9.50;;;;;;;11.33;100.00;100042.81;6180733;28;20238;-81
2024/03/31 06:46:52;;;;;;;13.60;12.10;;;;;;;11.36;100.00;100039.81;6174585;28;20325;-82
2024/03/31 06:50:14;;;;;;;13.23;11.93;;;;;;;11.40;100.00;100035.78;6175229;28;20484;-81
2024/03/31 06:53:33;;;;;;;12.10;8.80;;;;;;;11.40;100.00;100029.53;6182667;28;20230;-81
2024/03/31 06:56:54;;;;;;;10.70;9.57;;;;;;;11.47;100.00;100033.28;6175510;28;20233;-81
2024/03/31 07:00:17;;;;;;;14.13;10.03;;;;;;;11.45;100.00;100030.75;6181843;28;20234;-80
2024/03/31 07:03:37;;;;;;;13.17;8.93;;;;;;;11.04;100.00;100036.94;6180716;28;20221;-80
2024/03/31 07:06:58;;;;;;;13.80;10.37;;;;;;;11.28;100.00;100040.59;6182695;28;20269;-81
2024/03/31 07:10:18;;;;;;;10.83;9.47;;;;;;;11.30;100.00;100040.47;6176863;28;20238;-80
2024/03/31 07:13:40;;;;;;;9.17;8.17;;;;;;;11.23;100.00;100044.78;6180978;28;20238;-81
2024/03/31 07:17:02;;;;;;;9.57;8.67;;;;;;;11.18;100.00;100053.38;6170796;28;20225;-81
2024/03/31 07:20:24;;;;;;;8.60;7.70;;;;;;;11.19;100.00;100048.81;6170770;28;20226;-81
2024/03/31 07:23:45;;;;;;;9.27;8.37;;;;;;;11.13;100.00;100047.63;6191842;28;20234;-81
2024/03/31 07:27:06;;;;;;;8.50;7.77;;;;;;;11.35;100.00;100043.50;6174355;28;20222;-81
2024/03/31 07:30:27;;;;;;;8.63;7.80;;;;;;;11.33;100.00;100045.50;6173110;28;20325;-81
2024/03/31 07:33:49;;;;;;;9.27;7.67;;;;;;;11.34;100.00;100036.44;6175219;28;20230;-81
2024/03/31 07:37:10;;;;;;;12.33;9.90;;;;;;;11.35;100.00;100023.78;6189611;28;20233;-81
2024/03/31 07:40:30;;;;;;;10.17;9.03;;;;;;;11.32;100.00;100005.22;6180785;28;20294;-81
2024/03/31 07:43:51;;;;;;;9.43;8.63;;;;;;;11.23;100.00;99991.69;6188455;28;20226;-80
2024/03/31 07:47:11;;;;;;;9.77;8.77;;;;;;;11.21;100.00;99987.47;6174634;28;20328;-80
2024/03/31 07:50:34;;;;;;;9.10;8.27;;;;;;;11.24;100.00;99973.66;6174182;28;20249;-80
2024/03/31 07:53:55;;;;;;;9.30;7.27;;;;;;;11.37;100.00;99970.50;6184737;28;20222;-80
2024/03/31 07:57:15;;;;;;;9.33;8.50;;;;;;;11.32;100.00;99973.69;6178857;28;20301;-81
2024/03/31 08:00:35;;;;;;;8.97;8.13;;;;;;;11.34;100.00;99968.97;6162352;28;20261;-81
2024/03/31 08:03:57;;;;;;;7.73;6.90;;;;;;;11.38;100.00;99969.47;6182987;28;20282;-81
2024/03/31 08:07:18;;;;;;;8.13;7.33;;;;;;;11.30;100.00;99962.22;6178506;28;20253;-81
2024/03/31 08:10:39;;;;;;;8.10;7.30;;;;;;;11.27;100.00;99976.88;6177445;28;20233;-80
2024/03/31 08:13:59;;;;;;;7.27;6.67;;;;;;;11.35;100.00;99978.75;6184310;28;20230;-80
2024/03/31 08:17:20;;;;;;;9.77;9.00;;;;;;;11.27;100.00;99968.78;6175571;28;20242;-80
2024/03/31 08:20:41;;;;;;;7.43;6.73;;;;;;;11.30;100.00;99980.25;6177191;28;21332;-81
2024/03/31 08:24:04;;;;;;;7.40;6.70;;;;;;;11.30;100.00;99994.59;6186279;28;20234;-81
2024/03/31 08:27:24;;;;;;;7.20;6.50;;;;;;;11.30;100.00;99997.28;6176030;28;21769;-80
2024/03/31 08:30:46;;;;;;;11.17;7.70;;;;;;;11.48;100.00;99984.53;6174791;28;20230;-79
2024/03/31 08:34:08;;;;;;;7.60;6.77;;;;;;;11.70;100.00;99978.53;6179284;28;20227;-80
2024/03/31 08:37:28;;;;;;;8.53;7.63;;;;;;;11.67;100.00;99978.03;6176719;28;20761;-82
2024/03/31 08:41:01;;;;;;;8.50;7.70;;;;;;;11.55;100.00;99977.47;6177444;28;20623;-80
2024/03/31 08:44:21;;;;;;;7.70;7.00;;;;;;;11.57;100.00;99969.19;6180363;28;20230;-80
2024/03/31 08:47:44;;;;;;;11.03;8.63;;;;;;;11.63;100.00;99969.41;6174494;28;20469;-81
2024/03/31 08:51:06;;;;;;;7.23;6.53;;;;;;;11.64;100.00;99964.84;6168525;28;20230;-82
2024/03/31 08:54:27;;;;;;;10.17;9.17;;;;;;;11.61;100.00;99970.56;6182677;28;20222;-81
2024/03/31 08:57:49;;;;;;;14.63;8.87;;;;;;;11.54;100.00;99988.41;6174997;28;20537;-81
2024/03/31 09:01:13;;;;;;;9.47;8.47;;;;;;;11.25;100.00;100016.66;6176216;28;20225;-81
2024/03/31 09:04:33;;;;;;;9.13;8.33;;;;;;;11.33;100.00;100044.69;6182569;28;20230;-81
2024/03/31 09:07:54;;;;;;;8.33;7.13;;;;;;;11.28;100.00;100061.34;6178180;28;20225;-81
2024/03/31 09:11:14;;;;;;;9.40;8.50;;;;;;;11.33;100.00;100071.69;6181780;28;20235;-82
2024/03/31 09:14:38;;;;;;;20.60;18.40;;;;;;;11.37;100.00;100070.34;6188234;28;20234;-81
2024/03/31 09:17:59;;;;;;;10.57;9.57;;;;;;;11.16;100.00;100082.34;6183746;28;21414;-81
2024/03/31 09:21:20;;;;;;;9.17;8.27;;;;;;;11.47;100.00;100082.72;6179944;28;20230;-81
2024/03/31 09:24:43;;;;;;;9.27;8.43;;;;;;;11.55;100.00;100087.28;6176796;28;20621;-81
2024/03/31 09:28:05;;;;;;;9.03;8.13;;;;;;;11.72;100.00;100083.69;6183934;28;20234;-81
2024/03/31 09:31:27;;;;;;;9.53;8.57;;;;;;;11.80;100.00;100079.16;6173806;28;20226;-82
2024/03/31 09:34:49;;;;;;;11.83;8.97;;;;;;;11.78;100.00;100083.88;6182332;28;20276;-81
2024/03/31 09:38:09;;;;;;;12.73;8.77;;;;;;;11.88;100.00;100075.63;6183412;28;20218;-81
2024/03/31 09:41:30;;;;;;;8.60;7.80;;;;;;;11.86;100.00;100078.50;6178039;28;20230;-81
2024/03/31 09:44:52;;;;;;;9.10;8.20;;;;;;;11.91;100.00;100075.31;6185529;28;20230;-82
2024/03/31 09:48:18;;;;;;;8.53;7.73;;;;;;;12.04;100.00;100072.97;6181563;28;20230;-81
2024/03/31 09:51:42;;;;;;;8.30;7.60;;;;;;;12.11;100.00;100065.06;6179473;28;20231;-81
2024/03/31 09:55:08;;;;;;;8.97;7.97;;;;;;;11.83;100.00;100070.72;6174339;28;20222;-80
2024/03/31 09:58:33;;;;;;;10.50;9.50;;;;;;;11.33;100.00;100075.19;6184888;28;20230;-81
2024/03/31 10:01:54;;;;;;;7.97;7.17;;;;;;;11.02;100.00;100071.31;6178511;28;20320;-81
2024/03/31 10:05:22;;;;;;;8.37;7.57;;;;;;;11.41;100.00;100060.91;6178089;28;20605;-81
2024/03/31 10:08:43;;;;;;;8.97;8.07;;;;;;;11.63;100.00;100050.38;6196573;28;20323;-80
2024/03/31 10:12:06;;;;;;;7.83;7.13;;;;;;;11.75;100.00;100065.31;6179907;28;20238;-81
2024/03/31 10:15:28;;;;;;;12.20;7.47;;;;;;;11.97;100.00;100066.56;6189873;28;20493;-80
2024/03/31 10:18:50;;;;;;;11.07;8.53;;;;;;;11.84;100.00;100076.97;6195191;28;20759;-81
2024/03/31 10:22:14;;;;;;;8.57;7.80;;;;;;;11.24;100.00;100087.78;6171538;28;20358;-81
2024/03/31 10:25:35;;;;;;;10.70;8.87;;;;;;;10.98;100.00;100086.13;6178525;28;20230;-80
2024/03/31 10:28:58;;;;;;;9.30;8.50;;;;;;;11.21;100.00;100088.13;6180814;28;20257;-81
2024/03/31 10:32:19;;;;;;;17.37;15.57;;;;;;;10.89;100.00;100084.38;6178957;28;20300;-81
2024/03/31 10:35:40;;;;;;;16.43;14.77;;;;;;;10.93;100.00;100088.47;6178456;28;20421;-82
2024/03/31 10:39:03;;;;;;;16.60;14.93;;;;;;;10.60;100.00;100084.63;6183963;28;20222;-78
2024/03/31 10:42:24;;;;;;;16.47;14.83;;;;;;;10.51;100.00;100082.03;6191163;28;20238;-80
2024/03/31 10:45:46;;;;;;;16.77;14.97;;;;;;;10.88;100.00;100077.28;6177386;28;20222;-80
2024/03/31 10:49:07;;;;;;;15.70;14.13;;;;;;;10.64;100.00;100072.53;6179206;28;20239;-80
2024/03/31 10:52:27;;;;;;;15.33;13.77;;;;;;;11.00;100.00;100065.22;6174270;28;20233;-81
2024/03/31 10:55:51;;;;;;;15.97;14.30;;;;;;;11.00;100.00;100066.06;6181087;28;20225;-81
2024/03/31 10:59:13;;;;;;;15.10;13.60;;;;;;;11.45;100.00;100060.44;6186336;28;20238;-81
2024/03/31 11:02:36;;;;;;;16.87;15.27;;;;;;;11.35;100.00;100056.16;6178793;28;20376;-80
2024/03/31 11:05:56;;;;;;;16.67;14.87;;;;;;;11.51;100.00;100046.28;6164125;28;20233;-81
2024/03/31 11:09:16;;;;;;;15.80;14.30;;;;;;;11.84;100.00;100047.28;6183806;28;20226;-81
2024/03/31 11:12:43;;;;;;;15.97;14.40;;;;;;;12.12;100.00;100039.75;6186745;28;20226;-80
2024/03/31 11:16:05;;;;;;;16.80;14.37;;;;;;;12.33;100.00;100038.22;6181653;28;20317;-80
2024/03/31 11:19:27;;;;;;;13.23;12.03;;;;;;;12.56;100.00;100031.16;6180253;28;20655;-79
2024/03/31 11:22:49;;;;;;;15.07;13.67;;;;;;;12.75;100.00;100017.28;6176679;28;20234;-80
2024/03/31 11:26:10;;;;;;;15.47;13.97;;;;;;;12.97;100.00;100014.88;6184333;28;20234;-81
2024/03/31 11:29:35;;;;;;;15.40;13.90;;;;;;;13.92;100.00;100004.69;6186555;28;20238;-78
2024/03/31 11:33:01;;;;;;;14.90;13.47;;;;;;;14.01;100.00;100005.47;6159182;28;20224;-81
2024/03/31 11:36:21;;;;;;;17.20;15.30;;;;;;;14.15;100.00;100007.41;6183103;28;20233;-80
2024/03/31 11:39:44;;;;;;;16.43;14.83;;;;;;;14.26;100.00;100007.84;6186247;28;20245;-81
2024/03/31 11:43:05;;;;;;;21.67;15.63;;;;;;;14.32;100.00;100001.72;6186435;28;20619;-82
2024/03/31 11:46:28;;;;;;;17.37;15.67;;;;;;;13.56;100.00;99992.69;6178383;28;20226;-80
2024/03/31 11:49:48;;;;;;;16.10;14.50;;;;;;;13.31;100.00;99991.94;6185408;28;20229;-81
2024/03/31 11:53:09;;;;;;;18.73;16.93;;;;;;;13.52;100.00;99983.22;6184236;28;20242;-81
2024/03/31 11:56:29;;;;;;;16.43;14.90;;;;;;;13.30;100.00;99992.13;6176662;28;20229;-80
2024/03/31 11:59:55;;;;;;;16.23;14.53;;;;;;;13.34;100.00;99983.50;6186529;28;20230;-81
2024/03/31 12:03:17;;;;;;;16.87;15.27;;;;;;;13.54;100.00;99978.47;6183448;28;20237;-79
2024/03/31 12:06:38;;;;;;;15.23;13.83;;;;;;;13.24;100.00;99973.88;6178401;28;20225;-81
2024/03/31 12:09:59;;;;;;;17.13;15.57;;;;;;;13.18;100.00;99974.59;6180096;28;20589;-79
2024/03/31 12:13:19;;;;;;;17.77;15.90;;;;;;;13.00;100.00;99972.06;6184528;28;20227;-81
2024/03/31 12:16:42;;;;;;;17.53;15.87;;;;;;;13.37;100.00;99960.66;6173846;28;20225;-81
2024/03/31 12:20:08;;;;;;;17.67;15.90;;;;;;;13.72;100.00;99951.13;6180188;28;20580;-80
2024/03/31 12:23:29;;;;;;;17.63;15.47;;;;;;;14.17;100.00;99935.72;6183119;28;20238;-80
2024/03/31 12:26:50;;;;;;;16.47;14.73;;;;;;;14.47;100.00;99931.25;6180162;28;20254;-82
2024/03/31 12:30:12;;;;;;;15.00;13.70;;;;;;;14.96;100.00;99923.41;6180713;28;20245;-82
2024/03/31 12:33:32;;;;;;;14.47;13.07;;;;;;;15.74;100.00;99926.31;6181548;28;20249;-81
2024/03/31 12:36:56;;;;;;;14.67;13.17;;;;;;;16.31;100.00;99923.53;6181256;28;20271;-82
2024/03/31 12:40:19;;;;;;;14.37;12.97;;;;;;;15.70;100.00;99925.03;6175965;28;20523;-81
2024/03/31 12:43:39;;;;;;;13.93;12.63;;;;;;;15.95;100.00;99923.63;6188423;28;20229;-81
2024/03/31 12:47:01;;;;;;;12.90;11.40;;;;;;;16.72;100.00;99913.63;6176007;28;20234;-81
2024/03/31 12:50:22;;;;;;;21.80;19.50;;;;;;;21.90;100.00;99897.94;6178186;28;20261;-82
2024/03/31 12:53:44;;;;;;;14.10;12.80;;;;;;;24.52;100.00;99887.22;6183843;28;20226;-82
2024/03/31 12:57:05;;;;;;;11.38;10.23;;;;;;;24.78;92.28;99889.34;6180700;28;20230;-81
2024/03/31 13:00:25;;;;;;;8.93;8.13;;;;;;;21.94;92.61;99903.78;6173191;28;20233;-82
2024/03/31 13:03:47;;;;;;;8.23;7.40;;;;;;;20.10;100.00;99895.78;6183803;28;20324;-81
2024/03/31 13:07:09;;;;;;;8.23;7.40;;;;;;;19.60;100.00;99898.44;6178234;28;20226;-82
2024/03/31 13:10:31;;;;;;;7.15;6.55;;;;;;;19.87;100.00;99890.91;6181080;28;20460;-82
2024/03/31 13:13:57;;;;;;;6.70;6.13;;;;;;;18.85;100.00;99881.84;6177267;28;20230;-81
2024/03/31 13:17:18;;;;;;;6.50;5.90;;;;;;;18.48;100.00;99893.47;6178512;28;20234;-79
2024/03/31 13:20:40;;;;;;;7.78;7.07;;;;;;;17.41;100.00;99890.75;6176616;28;20305;-80
2024/03/31 13:24:01;;;;;;;7.25;6.60;;;;;;;17.43;100.00;99890.53;6183574;28;20581;-81
2024/03/31 13:27:22;;;;;;;7.25;6.55;;;;;;;17.89;100.00;99896.97;6173068;28;20225;-81
2024/03/31 13:30:43;;;;;;;7.15;6.57;;;;;;;18.32;100.00;99886.50;6178674;28;20226;-82
2024/03/31 13:34:04;;;;;;;5.30;4.82;;;;;;;19.57;100.00;99876.13;6183436;28;20324;-77
2024/03/31 13:37:24;;;;;;;6.05;5.55;;;;;;;19.45;100.00;99886.09;6173395;28;20226;-80
2024/03/31 13:40:46;;;;;;;6.80;6.13;;;;;;;18.85;100.00;99885.44;6179401;28;20738;-81
2024/03/31 13:44:08;;;;;;;6.90;6.32;;;;;;;18.54;100.00;99887.16;6182766;28;20329;-82
2024/03/31 13:47:28;;;;;;;6.10;5.50;;;;;;;18.53;100.00;99886.31;6177169;28;20237;-82
2024/03/31 13:50:49;;;;;;;6.63;5.30;;;;;;;18.78;100.00;99881.88;6179420;28;20242;-82
2024/03/31 13:54:10;;;;;;;5.55;5.05;;;;;;;18.20;100.00;99882.72;6182743;28;20226;-81
2024/03/31 13:57:30;;;;;;;7.88;7.15;;;;;;;17.47;100.00;99887.19;6179204;28;20234;-82
2024/03/31 14:00:52;;;;;;;6.03;5.50;;;;;;;16.96;100.00;99885.09;6176728;28;20233;-81
2024/03/31 14:04:12;;;;;;;5.37;4.87;;;;;;;17.19;100.00;99886.44;6179576;28;20241;-81
2024/03/31 14:07:33;;;;;;;7.20;6.50;;;;;;;16.71;100.00;99879.25;6178166;28;20234;-81
2024/03/31 14:10:53;;;;;;;6.57;5.90;;;;;;;16.71;100.00;99880.13;6174167;28;20244;-81
2024/03/31 14:14:14;;;;;;;6.77;6.13;;;;;;;16.73;100.00;99869.88;6184081;28;20245;-81
2024/03/31 14:17:36;;;;;;;15.50;13.97;;;;;;;16.40;100.00;99871.50;6174911;28;20234;-80
2024/03/31 14:20:57;;;;;;;8.53;7.63;;;;;;;16.23;100.00;99874.72;6174240;28;20234;-81
2024/03/31 14:24:17;;;;;;;5.87;5.37;;;;;;;16.10;100.00;99877.31;6181626;28;20242;-81
2024/03/31 14:27:38;;;;;;;7.07;6.23;;;;;;;15.89;100.00;99875.47;6175299;28;20302;-80
2024/03/31 14:30:59;;;;;;;5.90;5.33;;;;;;;15.72;100.00;99874.88;6174830;28;20237;-80
2024/03/31 14:34:22;;;;;;;7.90;6.20;;;;;;;15.37;100.00;99881.16;6178912;28;20229;-80
2024/03/31 14:37:42;;;;;;;6.20;5.60;;;;;;;15.56;100.00;99875.09;6185161;28;20233;-80
2024/03/31 14:41:04;;;;;;;5.60;5.10;;;;;;;15.74;100.00;99875.53;6176084;28;20226;-80
2024/03/31 14:44:23;;;;;;;6.13;5.63;;;;;;;16.02;100.00;99872.03;6183027;28;20273;-81
2024/03/31 14:47:44;;;;;;;4.33;3.93;;;;;;;16.20;100.00;99864.22;6168817;28;20611;-81
2024/03/31 14:51:07;;;;;;;4.17;3.83;;;;;;;16.82;100.00;99858.81;6180299;28;20229;-79
2024/03/31 14:54:27;;;;;;;6.03;4.90;;;;;;;17.05;100.00;99860.19;6187655;28;20329;-79
2024/03/31 14:57:48;;;;;;;5.37;4.60;;;;;;;17.32;100.00;99855.69;6179657;28;20226;-81
2024/03/31 15:01:08;;;;;;;5.73;5.23;;;;;;;17.41;100.00;99859.91;6170970;28;20312;-81
2024/03/31 15:04:29;;;;;;;5.77;4.90;;;;;;;17.41;100.00;99862.66;6187715;28;20234;-80
2024/03/31 15:07:51;;;;;;;5.40;4.93;;;;;;;17.41;100.00;99862.66;6180768;28;20229;-80
2024/03/31 15:11:11;;;;;;;5.00;4.60;;;;;;;16.77;100.00;99859.44;6178822;28;20225;-80
2024/03/31 15:14:32;;;;;;;8.97;5.47;;;;;;;16.42;100.00;99868.56;6183454;28;20611;-80
2024/03/31 15:17:53;;;;;;;6.40;5.80;;;;;;;15.83;100.00;99868.91;6175413;28;20257;-81